メインページ
METAR-TAF:

METAR-TAF

空港 :

成田国際空港

東京 / 成田国際空港, 日本

緯度: 35-46N, 経度: 140-23E, 海抜: 41m

現時点の気象観測

当レポートは22分前の07:00(UTC)に作成
北東の風 6kt、北/北西から東/北東の間で変化する
気温 24°C
湿度 89%
気圧 1012 hPa
視程: 8000m
高度500ftの雲はほとんどない
高度1000ftの雲は散在している
高度1500ftの千切れ雲あり

METAR: RJAA 200700Z 04006KT 340V060 8000 FEW005 SCT010 BKN015 24/22 Q1012 TEMPO FEW005 BKN008 RMK 1ST005 3ST010 6SC015 A2990

時間: 16:22 (07:22 UTC)

予報

当レポートは2時間12分前の05:10(UTC)に作成
予報は20日の 06時(UTC)から 21日の 12時(UTC)まで有効
北東の風 8kt
視程: 8000m
高度800ftの雲はほとんどない
高度1200ftの千切れ雲あり
小雨
20日の 06時(UTC)から 20日の 12時(UTC)まで一時的に
視程: 4000m
高度500ftの雲はほとんどない
高度800ftの千切れ雲あり
小雨, 靄
20日の 12時(UTC)から 20日の 14時(UTC)まで徐々に
視程: 4000m
高度500ftの雲はほとんどない
高度800ftの千切れ雲あり
20日の 14時(UTC)から 20日の 21時(UTC)まで一時的に
視程: 2000m
高度200ftの雲はほとんどない
高度400ftの千切れ雲あり
21日の 00時(UTC)から 21日の 03時(UTC)まで徐々に
南/南東の風 8kt
視程: 8000m
高度1000ftの雲はほとんどない
高度2000ftの雲は散在している

TAF: RJAA 200510Z 2006/2112 04008KT 8000 -RA FEW008 BKN012 TEMPO 2006/2012 4000 -RA BR FEW005 BKN008 BECMG 2012/2014 4000 BR FEW005 BKN008 TEMPO 2014/2021 2000 BR FEW002 BKN004 BECMG 2100/2103 15008KT 8000 NSW FEW010 SCT020

4,000以上の空港の気象観測と天気予報(METAR報とTAF報)

利用可能な観測所は地図上に黄色い丸と赤い丸で示す。

丸の上にカーソルを重ねると観測所名を参照できる。

次にクリックすると気象観測と天気予報を参照できる。

マップの切り替え:黒色「×」印の緑ボタンをクリックして拡大、「-」印の緑ボタンをクリックして縮小、緑色の三角印をクリックして隣りの地図に切り替え


METAR-TAF: